Terminal Aerodrome Forecast
Issued by NWS Louisville, KY

Current Version | Previous Version | Text Only | Print | Product List | Glossary On
Versions: 1 2 3 4 5 6 7 8 9 10 11 12 13 14 15 16 17 18
000
FTUS43 KLMK 190522
TAFLEX
TAF
KLEX 190522Z 1906/2006 18010KT P6SM VCSH SCT025 OVC050
      WS020/20040KT
      TEMPO 1906/1910 5SM -SHRA BKN012
     FM191200 19013KT P6SM VCSH OVC006 WS020/21043KT
     FM191400 19017G24KT P6SM BKN015
     FM191800 20017G25KT P6SM SCT025 BKN040
     FM200000 18012KT P6SM SCT250
     FM200300 18014KT P6SM SCT250 WS020/20047KT=

USA.gov is the U.S. government's official web portal to all federal, state and local government web resources and services.